createdAt,value
2023-04-29T00:03:02.160Z,101447.75
2023-04-29T00:08:08.164Z,101459.56
2023-04-29T00:13:12.950Z,101466.41
2023-04-29T00:18:16.948Z,101464.16
2023-04-29T00:23:22.312Z,101467.44
2023-04-29T00:28:26.940Z,101466.03
2023-04-29T00:33:31.116Z,101470.41
2023-04-29T00:38:36.529Z,101474.19
2023-04-29T00:43:40.834Z,101490.00
2023-04-29T00:48:44.960Z,101482.22
2023-04-29T00:53:50.476Z,101479.13
2023-04-29T00:58:55.334Z,101490.00
2023-04-29T01:03:59.787Z,101490.09
2023-04-29T01:09:20.026Z,101489.63
2023-04-29T01:14:25.994Z,101492.91
2023-04-29T01:19:47.624Z,101510.28
2023-04-29T01:24:53.093Z,101497.53
2023-04-29T01:30:05.943Z,101493.78
2023-04-29T01:35:31.840Z,101504.19
2023-04-29T01:40:49.770Z,101510.44
2023-04-29T01:46:00.784Z,101503.38
2023-04-29T01:51:06.423Z,101519.53
2023-04-29T01:56:12.739Z,101516.25
2023-04-29T02:01:35.149Z,101517.78
2023-04-29T02:06:39.845Z,101525.72
2023-04-29T02:11:45.721Z,101528.31
2023-04-29T02:16:50.279Z,101543.78
2023-04-29T02:21:54.666Z,101541.19
2023-04-29T02:27:00.187Z,101541.44
2023-04-29T02:32:04.649Z,101548.63
2023-04-29T02:37:08.878Z,101549.91
2023-04-29T02:42:14.320Z,101570.56
2023-04-29T02:47:18.338Z,101578.59
2023-04-29T02:52:22.356Z,101585.56
2023-04-29T02:57:29.627Z,101583.91
2023-04-29T03:02:33.589Z,101588.28
2023-04-29T03:07:38.326Z,101594.50
2023-04-29T03:12:43.890Z,101599.13
2023-04-29T03:17:47.994Z,101599.84
2023-04-29T03:22:52.055Z,101605.75
2023-04-29T03:27:57.648Z,101615.41
2023-04-29T03:33:01.881Z,101612.63
2023-04-29T03:38:07.561Z,101610.03
2023-04-29T03:43:15.129Z,101611.78
2023-04-29T03:48:20.109Z,101616.84
2023-04-29T03:53:26.225Z,101622.91
2023-04-29T03:58:32.243Z,101622.78
2023-04-29T04:03:36.624Z,101623.59
2023-04-29T04:08:41.385Z,101628.56
2023-04-29T04:13:53.670Z,101635.88
2023-04-29T04:18:58.195Z,101655.72
2023-04-29T04:24:02.525Z,101649.56
2023-04-29T04:29:09.197Z,101649.00
2023-04-29T04:34:34.716Z,101656.66
2023-04-29T04:39:40.522Z,101664.59
2023-04-29T04:44:50.241Z,101675.06
2023-04-29T04:50:06.050Z,101680.25
2023-04-29T04:55:12.737Z,101690.78
2023-04-29T05:00:23.096Z,101691.38
2023-04-29T05:05:27.332Z,101705.06
2023-04-29T05:10:33.396Z,101705.06
2023-04-29T05:15:40.391Z,101710.88
2023-04-29T05:20:46.176Z,101706.50
2023-04-29T05:25:50.168Z,101719.41
2023-04-29T05:30:56.773Z,101719.19
2023-04-29T05:36:01.015Z,101721.78
2023-04-29T05:41:05.366Z,101734.66
2023-04-29T05:46:20.570Z,101745.19
2023-04-29T05:51:26.216Z,101750.50
2023-04-29T05:56:30.427Z,101757.22
2023-04-29T06:01:36.165Z,101759.94
2023-04-29T06:06:40.330Z,101771.41
2023-04-29T06:11:54.500Z,101764.53
2023-04-29T06:16:59.907Z,101781.78
2023-04-29T06:22:04.034Z,101799.88
2023-04-29T06:27:09.280Z,101794.31
2023-04-29T06:32:15.854Z,101799.41
2023-04-29T06:37:20.903Z,101803.56
2023-04-29T06:42:44.727Z,101817.25
2023-04-29T06:48:21.817Z,101822.84
2023-04-29T06:53:26.399Z,101835.31
2023-04-29T06:58:31.768Z,101837.56
2023-04-29T07:03:37.369Z,101846.91
2023-04-29T07:08:44.802Z,101843.78
2023-04-29T07:13:48.833Z,101847.47
2023-04-29T07:18:54.219Z,101855.34
2023-04-29T07:24:00.785Z,101855.66
2023-04-29T07:29:06.047Z,101862.66
2023-04-29T07:34:11.513Z,101856.41
2023-04-29T07:39:16.887Z,101877.38
2023-04-29T07:44:23.300Z,101871.00
2023-04-29T07:49:28.720Z,101863.91
2023-04-29T07:54:32.935Z,101883.56
2023-04-29T07:59:37.050Z,101881.81
2023-04-29T08:04:43.146Z,101885.16
2023-04-29T08:09:49.885Z,101891.19
2023-04-29T08:14:54.303Z,101888.00
2023-04-29T08:20:00.421Z,101890.59
2023-04-29T08:25:05.761Z,101897.69
2023-04-29T08:30:11.081Z,101889.88
2023-04-29T08:35:16.528Z,101883.13
2023-04-29T08:40:20.770Z,101889.16
2023-04-29T08:45:28.568Z,101893.84
2023-04-29T08:50:39.519Z,101892.84
2023-04-29T08:55:45.755Z,101899.69
2023-04-29T09:00:50.535Z,101900.16
2023-04-29T09:05:57.819Z,101900.63
2023-04-29T09:11:02.833Z,101908.75
2023-04-29T09:16:12.225Z,101917.34
2023-04-29T09:21:22.349Z,101906.50
2023-04-29T09:26:27.589Z,101910.59
2023-04-29T09:31:31.720Z,101891.63
2023-04-29T09:36:40.608Z,101905.53
2023-04-29T09:42:02.666Z,101904.78
2023-04-29T09:47:09.028Z,101906.59
2023-04-29T09:52:16.914Z,101903.97
2023-04-29T09:57:22.062Z,101911.00
2023-04-29T10:02:26.800Z,101927.19
2023-04-29T10:07:32.346Z,101938.31
2023-04-29T10:12:38.733Z,101938.22
2023-04-29T10:17:49.502Z,101935.78
2023-04-29T10:22:59.163Z,101930.63
2023-04-29T10:28:10.541Z,101937.81
2023-04-29T10:33:17.948Z,101937.66
2023-04-29T10:38:29.872Z,101938.59
2023-04-29T10:43:34.239Z,101936.81
2023-04-29T10:48:40.896Z,101940.06
2023-04-29T10:54:05.382Z,101955.06
2023-04-29T10:59:15.567Z,101929.75
2023-04-29T11:04:22.595Z,101922.38
2023-04-29T11:09:28.953Z,101937.09
2023-04-29T11:14:39.941Z,101918.44
2023-04-29T11:19:46.404Z,101932.41
2023-04-29T11:24:57.626Z,101925.13
2023-04-29T11:30:05.268Z,101921.13
2023-04-29T11:35:12.088Z,101925.56
2023-04-29T11:40:17.878Z,101933.69
2023-04-29T11:45:22.310Z,101940.88
2023-04-29T11:50:27.431Z,101950.00
2023-04-29T11:55:32.828Z,101944.31
2023-04-29T12:00:37.217Z,101950.41
2023-04-29T12:05:41.572Z,101951.16
2023-04-29T12:10:48.389Z,101941.91
2023-04-29T12:15:53.594Z,101955.97
2023-04-29T12:20:58.407Z,101938.19
2023-04-29T12:26:04.122Z,101935.09
2023-04-29T12:31:10.986Z,101941.56
2023-04-29T12:36:18.976Z,101941.41
2023-04-29T12:41:38.670Z,101939.59
2023-04-29T12:46:43.267Z,101943.09
2023-04-29T12:51:47.559Z,101934.81
2023-04-29T12:56:53.784Z,101941.22
2023-04-29T13:01:57.867Z,101939.97
2023-04-29T13:07:02.570Z,101944.25
2023-04-29T13:12:09.614Z,101946.13
2023-04-29T13:17:13.982Z,101937.34
2023-04-29T13:22:19.493Z,101924.78
2023-04-29T13:27:25.045Z,101927.50
2023-04-29T13:32:41.242Z,101928.63
2023-04-29T13:37:49.530Z,101948.06
2023-04-29T13:43:02.171Z,101935.75
2023-04-29T13:48:26.035Z,101942.94
2023-04-29T13:54:10.517Z,101949.69
2023-04-29T14:04:07.009Z,101943.94
2023-04-29T14:09:11.702Z,101941.66
2023-04-29T14:14:17.710Z,101949.34
2023-04-29T14:19:21.813Z,101952.81
2023-04-29T14:24:26.233Z,101954.78
2023-04-29T14:29:31.694Z,101947.44
2023-04-29T14:34:35.886Z,101955.53
2023-04-29T14:39:40.434Z,101959.50
2023-04-29T14:44:45.862Z,101971.50
2023-04-29T14:49:49.841Z,101966.00
2023-04-29T14:54:54.107Z,101971.31
2023-04-29T14:59:59.851Z,101974.47
2023-04-29T15:05:04.261Z,101961.47
2023-04-29T15:10:10.001Z,101961.47
2023-04-29T15:15:15.326Z,101969.91
2023-04-29T15:20:19.390Z,101967.94
2023-04-29T15:25:25.437Z,101965.88
2023-04-29T15:30:32.238Z,101969.06
2023-04-29T15:35:36.896Z,101970.09
2023-04-29T15:40:40.958Z,101978.50
2023-04-29T15:45:46.357Z,101972.84
2023-04-29T15:50:50.474Z,101984.34
2023-04-29T15:55:55.691Z,101981.97
2023-04-29T16:01:01.130Z,101979.13
2023-04-29T16:06:06.215Z,101986.59
2023-04-29T16:11:10.199Z,101989.09
2023-04-29T16:16:15.964Z,101990.91
2023-04-29T16:21:20.093Z,101995.72
2023-04-29T16:26:24.171Z,101999.84
2023-04-29T16:31:29.680Z,101994.16
2023-04-29T16:36:34.300Z,101993.50
2023-04-29T16:41:38.499Z,101976.13
2023-04-29T16:46:44.027Z,101983.97
2023-04-29T16:51:48.143Z,101995.13
2023-04-29T16:56:52.123Z,102000.69
2023-04-29T17:01:57.954Z,102002.03
2023-04-29T17:07:03.098Z,101996.94
2023-04-29T17:12:07.936Z,101996.38
2023-04-29T17:17:13.360Z,101990.19
2023-04-29T17:22:18.012Z,101989.34
2023-04-29T17:27:24.941Z,101987.41
2023-04-29T17:32:38.698Z,101996.22
2023-04-29T17:37:42.734Z,101996.22
2023-04-29T17:42:46.737Z,102007.22
2023-04-29T17:47:52.157Z,102006.34
2023-04-29T17:52:56.187Z,102011.66
2023-04-29T17:58:00.443Z,102009.84
2023-04-29T18:03:06.734Z,102015.59
2023-04-29T18:08:11.258Z,102015.44
2023-04-29T18:13:15.455Z,102021.69
2023-04-29T18:18:20.854Z,102029.34
2023-04-29T18:23:25.007Z,102029.22
2023-04-29T18:28:29.373Z,102032.97
2023-04-29T18:33:36.975Z,102026.03
2023-04-29T18:38:41.179Z,102028.44
2023-04-29T18:43:45.350Z,102034.97
2023-04-29T18:48:50.868Z,102030.63
2023-04-29T18:53:54.846Z,102041.81
2023-04-29T18:58:58.880Z,102045.22
2023-04-29T19:04:06.521Z,102051.03
2023-04-29T19:09:12.264Z,102058.78
2023-04-29T19:14:16.281Z,102079.59
2023-04-29T19:19:21.755Z,102088.13
2023-04-29T19:24:25.870Z,102100.88
2023-04-29T19:29:29.849Z,102098.84
2023-04-29T19:34:35.264Z,102114.63
2023-04-29T19:39:39.255Z,102114.13
2023-04-29T19:44:43.353Z,102115.31
2023-04-29T19:49:48.704Z,102114.13
2023-04-29T19:54:52.704Z,102121.69
2023-04-29T19:59:56.846Z,102131.81
2023-04-29T20:05:02.991Z,102140.72
2023-04-29T20:10:08.915Z,102142.16
2023-04-29T20:15:13.267Z,102144.03
2023-04-29T20:20:18.864Z,102139.53
2023-04-29T20:25:22.935Z,102146.03
2023-04-29T20:30:27.252Z,102150.03
2023-04-29T20:35:32.725Z,102153.25
2023-04-29T20:40:36.914Z,102163.44
2023-04-29T20:45:40.933Z,102169.13
2023-04-29T20:50:46.384Z,102175.84
2023-04-29T20:55:50.491Z,102175.59
2023-04-29T21:00:54.534Z,102178.06
2023-04-29T21:06:00.007Z,102182.31
2023-04-29T21:11:05.201Z,102189.16
2023-04-29T21:16:10.029Z,102193.13
2023-04-29T21:21:15.655Z,102197.25
2023-04-29T21:26:19.637Z,102203.84
2023-04-29T21:31:23.693Z,102207.91
2023-04-29T21:36:29.232Z,102207.41
2023-04-29T21:41:37.533Z,102214.00
2023-04-29T21:46:41.895Z,102214.41
2023-04-29T21:51:47.495Z,102220.06
2023-04-29T21:56:51.472Z,102225.69
2023-04-29T22:02:00.435Z,102223.66
2023-04-29T22:07:05.977Z,102222.44
2023-04-29T22:12:10.086Z,102220.13
2023-04-29T22:17:15.114Z,102217.97
2023-04-29T22:22:20.845Z,102222.75
2023-04-29T22:27:24.960Z,102221.41
2023-04-29T22:32:28.899Z,102232.03
2023-04-29T22:37:34.326Z,102237.63
2023-04-29T22:42:39.537Z,102243.06
2023-04-29T22:47:43.589Z,102237.31
2023-04-29T22:52:49.065Z,102230.66
2023-04-29T22:57:53.674Z,102226.81
2023-04-29T23:03:00.000Z,102243.75
2023-04-29T23:08:06.713Z,102235.41
2023-04-29T23:13:12.869Z,102245.59
2023-04-29T23:18:16.901Z,102247.38
2023-04-29T23:23:22.435Z,102243.41
2023-04-29T23:28:26.555Z,102248.72
2023-04-29T23:33:30.558Z,102238.59
2023-04-29T23:38:35.997Z,102262.31
2023-04-29T23:43:39.954Z,102254.81
2023-04-29T23:48:43.929Z,102264.56
2023-04-29T23:53:49.275Z,102268.19
2023-04-29T23:58:53.321Z,102263.09
